Fort Campbell, Kentucky
Current Conditions -  °F | °C
As of 11:58 PM on Sunday 21 Dec 2014 (Local Time) from KHOP Reporting Station
Scattered Clouds Scattered Clouds  
Wind Chill: 38°   Ceiling: Unl
Heat Index: 38°   Visibility: 10mi
Dew Point: 31°   Wind: 3mph
Humidity: 77%   Direction: 110°ESE
Pressure: 29.98"   Gusts: NA
Location:  36.65°N, 87.46°W
Report Text: KHOP 220558Z AUTO 11003KT 10SM SCT100 03/00 A2998 RMK AO2 SLP156 T00311005 10061 20031 401001047 57016
Loading
Personal Weather Stations






























Interactive Weather Map New forecast layout! Learn more

10-Day Weather Forecast

Advertisements
Track Severe Weather on mobile